sensor_id;sensor_type;location;lat;lon;timestamp;P1;durP1;ratioP1;P2;durP2;ratioP2
72801;SDS011;61891;55.818;37.084;2022-07-24T00:00:25;21.08;;;14.68;;
72801;SDS011;61891;55.818;37.084;2022-07-24T00:02:51;19.48;;;14.40;;
72801;SDS011;61891;55.818;37.084;2022-07-24T00:05:17;19.60;;;15.02;;
72801;SDS011;61891;55.818;37.084;2022-07-24T00:07:43;17.83;;;13.63;;
72801;SDS011;61891;55.818;37.084;2022-07-24T00:10:09;18.05;;;13.85;;
72801;SDS011;61891;55.818;37.084;2022-07-24T00:12:35;19.77;;;13.90;;
72801;SDS011;61891;55.818;37.084;2022-07-24T00:15:01;18.60;;;14.05;;
72801;SDS011;61891;55.818;37.084;2022-07-24T00:17:29;17.52;;;13.70;;
72801;SDS011;61891;55.818;37.084;2022-07-24T00:19:55;19.73;;;13.48;;
72801;SDS011;61891;55.818;37.084;2022-07-24T00:22:21;17.95;;;13.82;;
72801;SDS011;61891;55.818;37.084;2022-07-24T00:24:46;20.15;;;13.85;;
72801;SDS011;61891;55.818;37.084;2022-07-24T00:29:38;19.15;;;13.93;;
72801;SDS011;61891;55.818;37.084;2022-07-24T00:32:04;16.42;;;13.07;;
72801;SDS011;61891;55.818;37.084;2022-07-24T00:36:56;17.05;;;13.75;;
72801;SDS011;61891;55.818;37.084;2022-07-24T00:39:22;18.92;;;13.77;;
72801;SDS011;61891;55.818;37.084;2022-07-24T00:41:48;17.70;;;12.75;;
72801;SDS011;61891;55.818;37.084;2022-07-24T00:44:15;16.73;;;13.35;;
72801;SDS011;61891;55.818;37.084;2022-07-24T00:46:42;18.42;;;13.45;;
72801;SDS011;61891;55.818;37.084;2022-07-24T00:49:11;17.20;;;12.70;;
72801;SDS011;61891;55.818;37.084;2022-07-24T00:51:40;16.80;;;12.70;;
72801;SDS011;61891;55.818;37.084;2022-07-24T00:54:07;16.80;;;13.10;;
72801;SDS011;61891;55.818;37.084;2022-07-24T00:56:34;17.02;;;12.88;;
72801;SDS011;61891;55.818;37.084;2022-07-24T00:59:01;15.40;;;12.68;;
72801;SDS011;61891;55.818;37.084;2022-07-24T01:01:27;16.63;;;12.38;;
72801;SDS011;61891;55.818;37.084;2022-07-24T01:03:54;19.23;;;13.60;;
72801;SDS011;61891;55.818;37.084;2022-07-24T01:06:21;17.13;;;12.40;;
72801;SDS011;61891;55.818;37.084;2022-07-24T01:08:48;17.85;;;12.60;;
72801;SDS011;61891;55.818;37.084;2022-07-24T01:11:14;15.60;;;12.52;;
72801;SDS011;61891;55.818;37.084;2022-07-24T01:13:40;15.73;;;12.88;;
72801;SDS011;61891;55.818;37.084;2022-07-24T01:16:08;16.92;;;12.93;;
72801;SDS011;61891;55.818;37.084;2022-07-24T01:18:35;15.93;;;13.10;;
72801;SDS011;61891;55.818;37.084;2022-07-24T01:21:01;15.45;;;12.73;;
72801;SDS011;61891;55.818;37.084;2022-07-24T01:23:28;16.35;;;13.02;;
72801;SDS011;61891;55.818;37.084;2022-07-24T01:25:54;16.52;;;12.43;;
72801;SDS011;61891;55.818;37.084;2022-07-24T01:28:20;17.60;;;12.80;;
72801;SDS011;61891;55.818;37.084;2022-07-24T01:30:46;17.70;;;13.65;;
72801;SDS011;61891;55.818;37.084;2022-07-24T01:33:12;15.45;;;12.35;;
72801;SDS011;61891;55.818;37.084;2022-07-24T01:35:39;16.20;;;13.40;;
72801;SDS011;61891;55.818;37.084;2022-07-24T01:38:06;18.92;;;14.25;;
72801;SDS011;61891;55.818;37.084;2022-07-24T01:42:58;21.02;;;13.57;;
72801;SDS011;61891;55.818;37.084;2022-07-24T01:45:24;20.33;;;14.27;;
72801;SDS011;61891;55.818;37.084;2022-07-24T01:47:50;18.40;;;13.60;;
72801;SDS011;61891;55.818;37.084;2022-07-24T01:50:16;20.05;;;13.77;;
72801;SDS011;61891;55.818;37.084;2022-07-24T01:52:42;18.20;;;13.52;;
72801;SDS011;61891;55.818;37.084;2022-07-24T01:55:07;18.10;;;13.73;;
72801;SDS011;61891;55.818;37.084;2022-07-24T01:57:34;21.10;;;13.93;;
72801;SDS011;61891;55.818;37.084;2022-07-24T02:00:00;19.98;;;13.80;;
72801;SDS011;61891;55.818;37.084;2022-07-24T02:02:39;19.98;;;14.00;;
72801;SDS011;61891;55.818;37.084;2022-07-24T02:05:06;19.23;;;12.68;;
72801;SDS011;61891;55.818;37.084;2022-07-24T02:07:33;12.15;;;9.82;;
72801;SDS011;61891;55.818;37.084;2022-07-24T02:09:59;15.18;;;11.02;;
72801;SDS011;61891;55.818;37.084;2022-07-24T02:12:25;12.98;;;9.88;;
72801;SDS011;61891;55.818;37.084;2022-07-24T02:15:11;15.40;;;10.75;;
72801;SDS011;61891;55.818;37.084;2022-07-24T02:17:36;14.50;;;10.18;;
72801;SDS011;61891;55.818;37.084;2022-07-24T02:20:03;13.45;;;10.10;;
72801;SDS011;61891;55.818;37.084;2022-07-24T02:22:29;17.60;;;10.25;;
72801;SDS011;61891;55.818;37.084;2022-07-24T02:24:55;14.40;;;10.82;;
72801;SDS011;61891;55.818;37.084;2022-07-24T02:29:47;17.33;;;11.05;;
72801;SDS011;61891;55.818;37.084;2022-07-24T02:32:13;18.42;;;11.48;;
72801;SDS011;61891;55.818;37.084;2022-07-24T02:34:38;16.10;;;11.32;;
72801;SDS011;61891;55.818;37.084;2022-07-24T02:37:04;13.77;;;11.25;;
72801;SDS011;61891;55.818;37.084;2022-07-24T02:39:30;15.65;;;11.30;;
72801;SDS011;61891;55.818;37.084;2022-07-24T02:41:56;16.00;;;11.48;;
72801;SDS011;61891;55.818;37.084;2022-07-24T02:44:21;17.45;;;12.25;;
72801;SDS011;61891;55.818;37.084;2022-07-24T02:46:47;15.05;;;11.90;;
72801;SDS011;61891;55.818;37.084;2022-07-24T02:49:13;16.15;;;11.75;;
72801;SDS011;61891;55.818;37.084;2022-07-24T02:51:39;15.45;;;10.98;;
72801;SDS011;61891;55.818;37.084;2022-07-24T02:54:05;15.70;;;12.98;;
72801;SDS011;61891;55.818;37.084;2022-07-24T02:56:31;17.15;;;13.27;;
72801;SDS011;61891;55.818;37.084;2022-07-24T02:58:56;15.82;;;12.10;;
72801;SDS011;61891;55.818;37.084;2022-07-24T03:01:22;16.75;;;12.05;;
72801;SDS011;61891;55.818;37.084;2022-07-24T03:03:48;16.60;;;12.55;;
72801;SDS011;61891;55.818;37.084;2022-07-24T03:06:14;16.55;;;12.60;;
72801;SDS011;61891;55.818;37.084;2022-07-24T03:08:40;19.60;;;12.95;;
72801;SDS011;61891;55.818;37.084;2022-07-24T03:11:06;17.27;;;11.90;;
72801;SDS011;61891;55.818;37.084;2022-07-24T03:13:31;15.27;;;11.55;;
72801;SDS011;61891;55.818;37.084;2022-07-24T03:15:57;15.82;;;11.45;;
72801;SDS011;61891;55.818;37.084;2022-07-24T03:18:23;16.25;;;12.25;;
72801;SDS011;61891;55.818;37.084;2022-07-24T03:20:49;19.17;;;11.77;;
72801;SDS011;61891;55.818;37.084;2022-07-24T03:23:15;16.27;;;11.45;;
72801;SDS011;61891;55.818;37.084;2022-07-24T03:25:40;17.95;;;11.75;;
72801;SDS011;61891;55.818;37.084;2022-07-24T03:28:06;18.08;;;10.95;;
72801;SDS011;61891;55.818;37.084;2022-07-24T03:30:32;16.95;;;11.50;;
72801;SDS011;61891;55.818;37.084;2022-07-24T03:32:58;17.17;;;12.50;;
72801;SDS011;61891;55.818;37.084;2022-07-24T03:35:24;19.08;;;12.45;;
72801;SDS011;61891;55.818;37.084;2022-07-24T03:37:49;16.08;;;12.90;;
72801;SDS011;61891;55.818;37.084;2022-07-24T03:40:15;18.25;;;13.70;;
72801;SDS011;61891;55.818;37.084;2022-07-24T03:42:41;17.55;;;13.65;;
72801;SDS011;61891;55.818;37.084;2022-07-24T03:45:07;14.57;;;12.98;;
72801;SDS011;61891;55.818;37.084;2022-07-24T03:47:34;20.05;;;13.20;;
72801;SDS011;61891;55.818;37.084;2022-07-24T03:49:59;15.55;;;13.02;;
72801;SDS011;61891;55.818;37.084;2022-07-24T03:52:25;17.85;;;14.18;;
72801;SDS011;61891;55.818;37.084;2022-07-24T03:57:17;19.55;;;12.32;;
72801;SDS011;61891;55.818;37.084;2022-07-24T03:59:43;15.27;;;12.30;;
72801;SDS011;61891;55.818;37.084;2022-07-24T04:02:09;15.57;;;12.32;;
72801;SDS011;61891;55.818;37.084;2022-07-24T04:07:00;16.40;;;12.32;;
72801;SDS011;61891;55.818;37.084;2022-07-24T04:11:52;15.95;;;11.90;;
72801;SDS011;61891;55.818;37.084;2022-07-24T04:14:18;18.70;;;12.70;;
72801;SDS011;61891;55.818;37.084;2022-07-24T04:19:09;19.13;;;10.38;;
72801;SDS011;61891;55.818;37.084;2022-07-24T04:21:35;15.38;;;10.93;;
72801;SDS011;61891;55.818;37.084;2022-07-24T04:24:01;19.50;;;10.32;;
72801;SDS011;61891;55.818;37.084;2022-07-24T04:26:26;16.75;;;11.25;;
72801;SDS011;61891;55.818;37.084;2022-07-24T04:31:18;17.90;;;11.20;;
72801;SDS011;61891;55.818;37.084;2022-07-24T04:33:44;16.00;;;12.13;;
72801;SDS011;61891;55.818;37.084;2022-07-24T04:36:09;14.88;;;10.50;;
72801;SDS011;61891;55.818;37.084;2022-07-24T04:41:01;11.13;;;8.93;;
72801;SDS011;61891;55.818;37.084;2022-07-24T04:45:53;12.77;;;8.93;;
72801;SDS011;61891;55.818;37.084;2022-07-24T04:50:44;9.40;;;8.23;;
72801;SDS011;61891;55.818;37.084;2022-07-24T04:55:36;13.27;;;8.80;;
72801;SDS011;61891;55.818;37.084;2022-07-24T04:58:01;12.82;;;9.18;;
72801;SDS011;61891;55.818;37.084;2022-07-24T05:02:53;15.18;;;9.65;;
72801;SDS011;61891;55.818;37.084;2022-07-24T05:07:45;14.45;;;9.45;;
72801;SDS011;61891;55.818;37.084;2022-07-24T05:12:36;15.73;;;9.07;;
72801;SDS011;61891;55.818;37.084;2022-07-24T05:17:29;13.55;;;8.65;;
72801;SDS011;61891;55.818;37.084;2022-07-24T05:22:21;14.48;;;9.48;;
72801;SDS011;61891;55.818;37.084;2022-07-24T05:27:12;12.18;;;9.45;;
72801;SDS011;61891;55.818;37.084;2022-07-24T05:29:38;13.98;;;8.70;;
72801;SDS011;61891;55.818;37.084;2022-07-24T05:32:05;13.18;;;7.95;;
72801;SDS011;61891;55.818;37.084;2022-07-24T05:34:31;13.52;;;8.30;;
72801;SDS011;61891;55.818;37.084;2022-07-24T05:36:57;11.60;;;7.65;;
72801;SDS011;61891;55.818;37.084;2022-07-24T05:39:23;13.10;;;8.70;;
72801;SDS011;61891;55.818;37.084;2022-07-24T05:41:48;14.57;;;9.27;;
72801;SDS011;61891;55.818;37.084;2022-07-24T05:44:14;15.75;;;9.25;;
72801;SDS011;61891;55.818;37.084;2022-07-24T05:46:40;15.25;;;8.57;;
72801;SDS011;61891;55.818;37.084;2022-07-24T05:51:32;10.95;;;8.23;;
72801;SDS011;61891;55.818;37.084;2022-07-24T05:53:58;13.30;;;9.48;;
72801;SDS011;61891;55.818;37.084;2022-07-24T05:56:23;7.93;;;6.30;;
72801;SDS011;61891;55.818;37.084;2022-07-24T05:58:49;8.65;;;6.60;;
72801;SDS011;61891;55.818;37.084;2022-07-24T06:01:15;7.10;;;6.30;;
72801;SDS011;61891;55.818;37.084;2022-07-24T06:03:41;8.13;;;6.03;;
72801;SDS011;61891;55.818;37.084;2022-07-24T06:06:07;5.78;;;4.90;;
72801;SDS011;61891;55.818;37.084;2022-07-24T06:08:33;7.45;;;5.68;;
72801;SDS011;61891;55.818;37.084;2022-07-24T06:10:58;5.20;;;4.70;;
72801;SDS011;61891;55.818;37.084;2022-07-24T06:13:24;5.68;;;5.18;;
72801;SDS011;61891;55.818;37.084;2022-07-24T06:15:50;7.15;;;5.80;;
72801;SDS011;61891;55.818;37.084;2022-07-24T06:18:16;8.90;;;6.50;;
72801;SDS011;61891;55.818;37.084;2022-07-24T06:20:42;6.47;;;5.78;;
72801;SDS011;61891;55.818;37.084;2022-07-24T06:23:08;8.02;;;6.40;;
72801;SDS011;61891;55.818;37.084;2022-07-24T06:25:33;6.25;;;5.65;;
72801;SDS011;61891;55.818;37.084;2022-07-24T06:27:59;5.20;;;4.70;;
72801;SDS011;61891;55.818;37.084;2022-07-24T06:30:26;5.60;;;5.10;;
72801;SDS011;61891;55.818;37.084;2022-07-24T06:32:54;6.32;;;4.95;;
72801;SDS011;61891;55.818;37.084;2022-07-24T06:35:22;5.82;;;5.28;;
72801;SDS011;61891;55.818;37.084;2022-07-24T06:37:48;5.88;;;4.72;;
72801;SDS011;61891;55.818;37.084;2022-07-24T06:40:15;6.20;;;5.60;;
72801;SDS011;61891;55.818;37.084;2022-07-24T06:42:42;5.65;;;5.03;;
72801;SDS011;61891;55.818;37.084;2022-07-24T06:45:08;5.47;;;4.97;;
72801;SDS011;61891;55.818;37.084;2022-07-24T06:47:34;5.50;;;4.70;;
72801;SDS011;61891;55.818;37.084;2022-07-24T06:50:00;5.95;;;5.40;;
72801;SDS011;61891;55.818;37.084;2022-07-24T06:52:26;8.05;;;5.22;;
72801;SDS011;61891;55.818;37.084;2022-07-24T06:54:52;5.75;;;5.25;;
72801;SDS011;61891;55.818;37.084;2022-07-24T06:57:17;6.75;;;5.55;;
72801;SDS011;61891;55.818;37.084;2022-07-24T06:59:44;6.45;;;5.85;;
72801;SDS011;61891;55.818;37.084;2022-07-24T07:02:10;6.15;;;5.57;;
72801;SDS011;61891;55.818;37.084;2022-07-24T07:04:36;6.03;;;5.50;;
72801;SDS011;61891;55.818;37.084;2022-07-24T07:07:02;6.57;;;5.97;;
72801;SDS011;61891;55.818;37.084;2022-07-24T07:09:29;8.50;;;6.38;;
72801;SDS011;61891;55.818;37.084;2022-07-24T07:11:55;6.68;;;5.95;;
72801;SDS011;61891;55.818;37.084;2022-07-24T07:14:21;5.25;;;4.70;;
72801;SDS011;61891;55.818;37.084;2022-07-24T07:16:47;7.13;;;5.13;;
72801;SDS011;61891;55.818;37.084;2022-07-24T07:19:13;5.90;;;5.38;;
72801;SDS011;61891;55.818;37.084;2022-07-24T07:21:39;5.70;;;5.00;;
72801;SDS011;61891;55.818;37.084;2022-07-24T07:24:05;5.32;;;4.82;;
72801;SDS011;61891;55.818;37.084;2022-07-24T07:26:31;7.05;;;5.55;;
72801;SDS011;61891;55.818;37.084;2022-07-24T07:28:57;5.07;;;4.57;;
72801;SDS011;61891;55.818;37.084;2022-07-24T07:31:23;6.15;;;4.60;;
72801;SDS011;61891;55.818;37.084;2022-07-24T07:33:50;4.13;;;3.78;;
72801;SDS011;61891;55.818;37.084;2022-07-24T07:36:16;4.38;;;3.97;;
72801;SDS011;61891;55.818;37.084;2022-07-24T07:38:42;3.65;;;3.35;;
72801;SDS011;61891;55.818;37.084;2022-07-24T07:41:08;4.95;;;4.20;;
72801;SDS011;61891;55.818;37.084;2022-07-24T07:43:33;4.25;;;3.95;;
72801;SDS011;61891;55.818;37.084;2022-07-24T07:45:59;5.35;;;4.55;;
72801;SDS011;61891;55.818;37.084;2022-07-24T07:48:25;4.07;;;3.40;;
72801;SDS011;61891;55.818;37.084;2022-07-24T07:50:52;4.00;;;3.60;;
72801;SDS011;61891;55.818;37.084;2022-07-24T07:53:18;3.95;;;3.30;;
72801;SDS011;61891;55.818;37.084;2022-07-24T07:55:44;4.45;;;3.47;;
72801;SDS011;61891;55.818;37.084;2022-07-24T07:58:14;4.20;;;3.80;;
72801;SDS011;61891;55.818;37.084;2022-07-24T08:00:40;3.80;;;3.50;;
72801;SDS011;61891;55.818;37.084;2022-07-24T08:03:06;3.90;;;3.60;;
72801;SDS011;61891;55.818;37.084;2022-07-24T08:05:32;4.05;;;3.75;;
72801;SDS011;61891;55.818;37.084;2022-07-24T08:07:58;8.57;;;3.88;;
72801;SDS011;61891;55.818;37.084;2022-07-24T08:10:24;4.13;;;3.83;;
72801;SDS011;61891;55.818;37.084;2022-07-24T08:12:50;4.25;;;3.85;;
72801;SDS011;61891;55.818;37.084;2022-07-24T08:15:15;4.43;;;4.00;;
72801;SDS011;61891;55.818;37.084;2022-07-24T08:17:42;5.38;;;4.00;;
72801;SDS011;61891;55.818;37.084;2022-07-24T08:20:09;5.22;;;4.10;;
72801;SDS011;61891;55.818;37.084;2022-07-24T08:22:35;4.70;;;4.25;;
72801;SDS011;61891;55.818;37.084;2022-07-24T08:25:01;4.90;;;4.45;;
72801;SDS011;61891;55.818;37.084;2022-07-24T08:27:29;4.78;;;3.90;;
72801;SDS011;61891;55.818;37.084;2022-07-24T08:29:54;4.18;;;3.78;;
72801;SDS011;61891;55.818;37.084;2022-07-24T08:32:20;4.40;;;3.92;;
72801;SDS011;61891;55.818;37.084;2022-07-24T08:34:46;7.18;;;5.50;;
72801;SDS011;61891;55.818;37.084;2022-07-24T08:37:12;4.22;;;3.80;;
72801;SDS011;61891;55.818;37.084;2022-07-24T08:39:38;4.35;;;3.85;;
72801;SDS011;61891;55.818;37.084;2022-07-24T08:42:06;4.28;;;3.95;;
72801;SDS011;61891;55.818;37.084;2022-07-24T08:44:32;4.05;;;3.75;;
72801;SDS011;61891;55.818;37.084;2022-07-24T08:46:58;4.25;;;3.85;;
72801;SDS011;61891;55.818;37.084;2022-07-24T08:49:26;4.22;;;3.90;;
72801;SDS011;61891;55.818;37.084;2022-07-24T08:51:55;4.20;;;3.83;;
72801;SDS011;61891;55.818;37.084;2022-07-24T08:54:24;4.30;;;4.00;;
72801;SDS011;61891;55.818;37.084;2022-07-24T08:56:50;4.03;;;3.72;;
72801;SDS011;61891;55.818;37.084;2022-07-24T08:59:18;4.55;;;4.15;;
72801;SDS011;61891;55.818;37.084;2022-07-24T09:01:46;4.20;;;3.90;;
72801;SDS011;61891;55.818;37.084;2022-07-24T09:07:02;5.32;;;4.13;;
72801;SDS011;61891;55.818;37.084;2022-07-24T09:09:34;4.50;;;3.85;;
72801;SDS011;61891;55.818;37.084;2022-07-24T09:12:15;5.55;;;4.30;;
72801;SDS011;61891;55.818;37.084;2022-07-24T09:14:43;4.45;;;4.05;;
72801;SDS011;61891;55.818;37.084;2022-07-24T09:22:39;4.57;;;4.18;;
72801;SDS011;61891;55.818;37.084;2022-07-24T09:27:47;4.05;;;3.78;;
72801;SDS011;61891;55.818;37.084;2022-07-24T09:33:04;3.88;;;3.55;;
72801;SDS011;61891;55.818;37.084;2022-07-24T09:35:46;5.18;;;3.67;;
72801;SDS011;61891;55.818;37.084;2022-07-24T09:38:16;3.30;;;3.10;;
72801;SDS011;61891;55.818;37.084;2022-07-24T09:40:47;5.18;;;3.60;;
72801;SDS011;61891;55.818;37.084;2022-07-24T09:43:23;3.75;;;3.42;;
72801;SDS011;61891;55.818;37.084;2022-07-24T09:45:54;4.05;;;3.65;;
72801;SDS011;61891;55.818;37.084;2022-07-24T09:53:22;4.15;;;3.75;;
72801;SDS011;61891;55.818;37.084;2022-07-24T09:58:30;7.00;;;4.82;;
72801;SDS011;61891;55.818;37.084;2022-07-24T10:00:57;8.02;;;5.53;;
72801;SDS011;61891;55.818;37.084;2022-07-24T10:03:35;5.43;;;4.22;;
72801;SDS011;61891;55.818;37.084;2022-07-24T10:06:06;5.22;;;3.88;;
72801;SDS011;61891;55.818;37.084;2022-07-24T10:08:34;4.18;;;3.88;;
72801;SDS011;61891;55.818;37.084;2022-07-24T10:11:01;4.57;;;3.83;;
72801;SDS011;61891;55.818;37.084;2022-07-24T10:13:28;4.30;;;3.90;;
72801;SDS011;61891;55.818;37.084;2022-07-24T10:21:15;4.68;;;4.07;;
72801;SDS011;61891;55.818;37.084;2022-07-24T10:26:33;3.70;;;3.38;;
72801;SDS011;61891;55.818;37.084;2022-07-24T10:29:06;4.88;;;4.47;;
72801;SDS011;61891;55.818;37.084;2022-07-24T10:31:43;5.38;;;3.67;;
72801;SDS011;61891;55.818;37.084;2022-07-24T10:39:52;4.32;;;3.70;;
72801;SDS011;61891;55.818;37.084;2022-07-24T10:42:20;4.05;;;3.67;;
72801;SDS011;61891;55.818;37.084;2022-07-24T10:45:12;5.65;;;3.70;;
72801;SDS011;61891;55.818;37.084;2022-07-24T10:47:42;4.50;;;4.03;;
72801;SDS011;61891;55.818;37.084;2022-07-24T10:50:09;4.25;;;3.80;;
72801;SDS011;61891;55.818;37.084;2022-07-24T10:52:35;3.83;;;3.60;;
72801;SDS011;61891;55.818;37.084;2022-07-24T10:57:59;5.18;;;4.20;;
72801;SDS011;61891;55.818;37.084;2022-07-24T11:00:33;4.60;;;4.13;;
72801;SDS011;61891;55.818;37.084;2022-07-24T11:05:30;4.10;;;3.40;;
72801;SDS011;61891;55.818;37.084;2022-07-24T11:10:52;4.00;;;3.63;;
72801;SDS011;61891;55.818;37.084;2022-07-24T11:18:39;3.70;;;3.50;;
72801;SDS011;61891;55.818;37.084;2022-07-24T11:21:07;4.32;;;4.03;;
72801;SDS011;61891;55.818;37.084;2022-07-24T11:23:33;3.80;;;3.50;;
72801;SDS011;61891;55.818;37.084;2022-07-24T11:32:02;3.65;;;3.35;;
72801;SDS011;61891;55.818;37.084;2022-07-24T11:34:33;3.70;;;3.40;;
72801;SDS011;61891;55.818;37.084;2022-07-24T11:37:01;5.72;;;5.05;;
72801;SDS011;61891;55.818;37.084;2022-07-24T11:39:32;3.85;;;3.55;;
72801;SDS011;61891;55.818;37.084;2022-07-24T11:42:01;4.25;;;3.83;;
72801;SDS011;61891;55.818;37.084;2022-07-24T11:44:33;3.70;;;3.40;;
72801;SDS011;61891;55.818;37.084;2022-07-24T11:47:24;3.88;;;3.58;;
72801;SDS011;61891;55.818;37.084;2022-07-24T11:49:53;4.25;;;3.78;;
72801;SDS011;61891;55.818;37.084;2022-07-24T11:52:23;4.03;;;3.72;;
72801;SDS011;61891;55.818;37.084;2022-07-24T11:54:52;3.72;;;3.53;;
72801;SDS011;61891;55.818;37.084;2022-07-24T11:59:49;4.63;;;4.15;;
72801;SDS011;61891;55.818;37.084;2022-07-24T12:02:16;5.25;;;4.00;;
72801;SDS011;61891;55.818;37.084;2022-07-24T12:04:44;3.80;;;3.53;;
72801;SDS011;61891;55.818;37.084;2022-07-24T12:07:12;4.63;;;4.32;;
72801;SDS011;61891;55.818;37.084;2022-07-24T12:09:59;4.20;;;3.83;;
72801;SDS011;61891;55.818;37.084;2022-07-24T12:12:27;4.47;;;4.18;;
72801;SDS011;61891;55.818;37.084;2022-07-24T12:15:06;3.97;;;3.67;;
72801;SDS011;61891;55.818;37.084;2022-07-24T12:17:34;4.07;;;3.72;;
72801;SDS011;61891;55.818;37.084;2022-07-24T12:20:19;4.35;;;3.63;;
72801;SDS011;61891;55.818;37.084;2022-07-24T12:22:46;4.25;;;3.95;;
72801;SDS011;61891;55.818;37.084;2022-07-24T12:25:12;4.05;;;3.75;;
72801;SDS011;61891;55.818;37.084;2022-07-24T12:27:40;4.03;;;3.72;;
72801;SDS011;61891;55.818;37.084;2022-07-24T12:30:26;4.03;;;3.72;;
72801;SDS011;61891;55.818;37.084;2022-07-24T12:35:28;3.88;;;3.58;;
72801;SDS011;61891;55.818;37.084;2022-07-24T12:37:56;4.55;;;4.18;;
72801;SDS011;61891;55.818;37.084;2022-07-24T12:40:44;3.95;;;3.65;;
72801;SDS011;61891;55.818;37.084;2022-07-24T12:43:09;4.30;;;3.90;;
72801;SDS011;61891;55.818;37.084;2022-07-24T12:45:38;3.90;;;3.28;;
72801;SDS011;61891;55.818;37.084;2022-07-24T12:48:08;4.28;;;3.88;;
72801;SDS011;61891;55.818;37.084;2022-07-24T12:50:36;3.60;;;3.30;;
72801;SDS011;61891;55.818;37.084;2022-07-24T12:53:06;4.25;;;3.83;;
72801;SDS011;61891;55.818;37.084;2022-07-24T12:55:34;4.65;;;4.13;;
72801;SDS011;61891;55.818;37.084;2022-07-24T12:58:02;4.30;;;3.88;;
72801;SDS011;61891;55.818;37.084;2022-07-24T13:00:30;3.72;;;3.42;;
72801;SDS011;61891;55.818;37.084;2022-07-24T13:02:56;4.25;;;3.85;;
72801;SDS011;61891;55.818;37.084;2022-07-24T13:05:39;4.47;;;4.10;;
72801;SDS011;61891;55.818;37.084;2022-07-24T13:08:06;4.00;;;3.80;;
72801;SDS011;61891;55.818;37.084;2022-07-24T13:10:33;3.63;;;3.33;;
72801;SDS011;61891;55.818;37.084;2022-07-24T13:13:00;4.97;;;4.57;;
72801;SDS011;61891;55.818;37.084;2022-07-24T13:15:26;4.78;;;3.83;;
72801;SDS011;61891;55.818;37.084;2022-07-24T13:17:52;3.80;;;3.50;;
72801;SDS011;61891;55.818;37.084;2022-07-24T13:20:18;3.72;;;3.53;;
72801;SDS011;61891;55.818;37.084;2022-07-24T13:22:44;3.72;;;3.53;;
72801;SDS011;61891;55.818;37.084;2022-07-24T13:25:10;4.68;;;4.03;;
72801;SDS011;61891;55.818;37.084;2022-07-24T13:27:36;4.72;;;4.30;;
72801;SDS011;61891;55.818;37.084;2022-07-24T13:30:02;6.45;;;3.53;;
72801;SDS011;61891;55.818;37.084;2022-07-24T13:32:29;4.07;;;3.83;;
72801;SDS011;61891;55.818;37.084;2022-07-24T13:34:55;3.40;;;3.10;;
72801;SDS011;61891;55.818;37.084;2022-07-24T13:37:21;4.20;;;4.00;;
72801;SDS011;61891;55.818;37.084;2022-07-24T13:39:46;4.63;;;4.25;;
72801;SDS011;61891;55.818;37.084;2022-07-24T13:42:12;4.18;;;3.80;;
72801;SDS011;61891;55.818;37.084;2022-07-24T13:44:40;3.80;;;3.58;;
72801;SDS011;61891;55.818;37.084;2022-07-24T13:47:06;3.97;;;3.65;;
72801;SDS011;61891;55.818;37.084;2022-07-24T13:49:32;5.18;;;3.92;;
72801;SDS011;61891;55.818;37.084;2022-07-24T13:51:58;4.40;;;4.00;;
72801;SDS011;61891;55.818;37.084;2022-07-24T13:54:24;4.38;;;4.07;;
72801;SDS011;61891;55.818;37.084;2022-07-24T13:56:51;4.07;;;3.78;;
72801;SDS011;61891;55.818;37.084;2022-07-24T13:59:18;4.35;;;4.05;;
72801;SDS011;61891;55.818;37.084;2022-07-24T14:01:43;4.50;;;4.07;;
72801;SDS011;61891;55.818;37.084;2022-07-24T14:04:09;5.35;;;4.85;;
72801;SDS011;61891;55.818;37.084;2022-07-24T14:06:35;4.72;;;4.30;;
72801;SDS011;61891;55.818;37.084;2022-07-24T14:09:04;6.15;;;5.55;;
72801;SDS011;61891;55.818;37.084;2022-07-24T14:11:30;5.07;;;4.30;;
72801;SDS011;61891;55.818;37.084;2022-07-24T14:13:56;4.35;;;4.05;;
72801;SDS011;61891;55.818;37.084;2022-07-24T14:16:22;4.10;;;3.78;;
72801;SDS011;61891;55.818;37.084;2022-07-24T14:18:48;4.38;;;3.97;;
72801;SDS011;61891;55.818;37.084;2022-07-24T14:21:14;4.28;;;3.80;;
72801;SDS011;61891;55.818;37.084;2022-07-24T14:23:40;4.13;;;3.83;;
72801;SDS011;61891;55.818;37.084;2022-07-24T14:26:06;4.07;;;3.78;;
72801;SDS011;61891;55.818;37.084;2022-07-24T14:28:32;4.90;;;4.05;;
72801;SDS011;61891;55.818;37.084;2022-07-24T14:30:58;7.20;;;4.20;;
72801;SDS011;61891;55.818;37.084;2022-07-24T14:33:24;4.00;;;3.65;;
72801;SDS011;61891;55.818;37.084;2022-07-24T14:35:49;5.00;;;4.68;;
72801;SDS011;61891;55.818;37.084;2022-07-24T14:38:15;3.75;;;3.50;;
72801;SDS011;61891;55.818;37.084;2022-07-24T14:40:41;3.83;;;3.53;;
72801;SDS011;61891;55.818;37.084;2022-07-24T14:43:07;4.40;;;3.65;;
72801;SDS011;61891;55.818;37.084;2022-07-24T14:45:33;3.60;;;3.40;;
72801;SDS011;61891;55.818;37.084;2022-07-24T14:47:59;4.32;;;3.92;;
72801;SDS011;61891;55.818;37.084;2022-07-24T14:50:24;3.92;;;3.63;;
72801;SDS011;61891;55.818;37.084;2022-07-24T14:52:50;4.07;;;3.88;;
72801;SDS011;61891;55.818;37.084;2022-07-24T14:55:16;4.32;;;4.03;;
72801;SDS011;61891;55.818;37.084;2022-07-24T14:57:42;4.93;;;3.53;;
72801;SDS011;61891;55.818;37.084;2022-07-24T15:00:08;4.18;;;3.67;;
72801;SDS011;61891;55.818;37.084;2022-07-24T15:02:34;4.60;;;4.03;;
72801;SDS011;61891;55.818;37.084;2022-07-24T15:05:00;3.75;;;3.45;;
72801;SDS011;61891;55.818;37.084;2022-07-24T15:07:26;3.80;;;3.50;;
72801;SDS011;61891;55.818;37.084;2022-07-24T15:09:52;4.38;;;3.53;;
72801;SDS011;61891;55.818;37.084;2022-07-24T15:12:18;4.47;;;4.07;;
72801;SDS011;61891;55.818;37.084;2022-07-24T15:14:43;4.80;;;3.92;;
72801;SDS011;61891;55.818;37.084;2022-07-24T15:17:09;6.57;;;4.88;;
72801;SDS011;61891;55.818;37.084;2022-07-24T15:19:35;5.13;;;4.32;;
72801;SDS011;61891;55.818;37.084;2022-07-24T15:22:01;6.13;;;4.40;;
72801;SDS011;61891;55.818;37.084;2022-07-24T15:24:27;7.75;;;5.07;;
72801;SDS011;61891;55.818;37.084;2022-07-24T15:26:52;6.97;;;5.78;;
72801;SDS011;61891;55.818;37.084;2022-07-24T15:29:18;6.07;;;5.47;;
72801;SDS011;61891;55.818;37.084;2022-07-24T15:31:44;4.53;;;3.88;;
72801;SDS011;61891;55.818;37.084;2022-07-24T15:34:13;7.82;;;5.85;;
72801;SDS011;61891;55.818;37.084;2022-07-24T15:36:39;6.20;;;4.68;;
72801;SDS011;61891;55.818;37.084;2022-07-24T15:39:06;8.07;;;5.68;;
72801;SDS011;61891;55.818;37.084;2022-07-24T15:41:33;4.63;;;4.05;;
72801;SDS011;61891;55.818;37.084;2022-07-24T15:44:00;10.13;;;8.48;;
72801;SDS011;61891;55.818;37.084;2022-07-24T15:46:26;4.82;;;4.15;;
72801;SDS011;61891;55.818;37.084;2022-07-24T15:48:51;9.45;;;6.07;;
72801;SDS011;61891;55.818;37.084;2022-07-24T15:51:17;13.90;;;7.68;;
72801;SDS011;61891;55.818;37.084;2022-07-24T15:53:43;8.15;;;4.75;;
72801;SDS011;61891;55.818;37.084;2022-07-24T15:56:09;10.68;;;5.25;;
72801;SDS011;61891;55.818;37.084;2022-07-24T15:58:35;13.43;;;6.15;;
72801;SDS011;61891;55.818;37.084;2022-07-24T16:01:00;16.65;;;7.95;;
72801;SDS011;61891;55.818;37.084;2022-07-24T16:03:26;13.60;;;7.70;;
72801;SDS011;61891;55.818;37.084;2022-07-24T16:05:52;16.88;;;9.02;;
72801;SDS011;61891;55.818;37.084;2022-07-24T16:08:18;14.50;;;7.05;;
72801;SDS011;61891;55.818;37.084;2022-07-24T16:10:44;11.55;;;6.47;;
72801;SDS011;61891;55.818;37.084;2022-07-24T16:13:10;12.25;;;7.15;;